Terminal Aerodrome Forecast
Issued by NWS

Home | Current Version | Previous Version | Text Only | Print | Product List | Glossary On
Versions: 1 2 3 4 5 6 7 8 9 10 11 12 13 14 15 16 17
000
FTUS41 KBOX 231132 AAA
TAFBED
TAF AMD
KBED 231132Z 2312/2412 04010KT P6SM -DZ VCSH OVC015
     FM231700 06012G28KT P6SM VCSH OVC010
     FM231900 06012G31KT 5SM -SHRA OVC008
     FM240000 06014G38KT P6SM -RAPL OVC008
     FM240100 05015G38KT P6SM -PLSN OVC008
     FM240300 04015G40KT 3SM -RAPL OVC008
     FM240600 03018G40KT 2SM RAPL OVC008 WS020/06045KT=

USA.gov is the U.S. government's official web portal to all federal, state and local government web resources and services.